Time;durP1;ratioP1;P1;durP2;ratioP2;P2;SDS_P1;SDS_P2;PMS_P1;PMS_P2;Temp;Humidity;BMP_temperature;BMP_pressure;BME280_temperature;BME280_humidity;BME280_pressure;Samples;Min_cycle;Max_cycle;Signal;HPM_P1;HPM_P2
2021/09/30 00:00:09;;;;;;;12.90;1.40;;;;;;;10.73;82.36;102440.91;5052665;28;20088;-77
2021/09/30 00:02:35;;;;;;;8.90;1.60;;;;;;;10.79;82.13;102444.69;5051958;28;20091;-82
2021/09/30 00:05:03;;;;;;;8.05;1.52;;;;;;;10.92;80.09;102437.28;5051917;28;20113;-77
2021/09/30 00:07:29;;;;;;;15.13;1.65;;;;;;;11.00;79.33;102443.81;5050321;28;20029;-81
2021/09/30 00:10:34;;;;;;;7.15;1.48;;;;;;;10.98;79.69;102442.81;5052710;28;20490;-81
2021/09/30 00:13:05;;;;;;;9.77;1.77;;;;;;;10.95;79.74;102446.22;5048648;28;20120;-79
2021/09/30 00:18:38;;;;;;;9.80;1.30;;;;;;;11.04;77.92;102445.72;5050564;28;20033;-78
2021/09/30 00:32:57;;;;;;;;;;;;;;;11.06;77.52;102453.69;5052628;28;20106;-78
2021/09/30 00:41:55;;;;;;;9.40;1.65;;;;;;;11.03;77.76;102464.06;4972643;28;20090;-83
2021/09/30 00:52:33;;;;;;;7.78;1.02;;;;;;;11.25;75.12;102455.31;5052808;28;20100;-82
2021/09/30 01:25:48;;;;;;;8.88;1.40;;;;;;;11.42;76.98;102467.44;5050751;28;20116;-80
2021/09/30 02:22:04;;;;;;;7.40;1.40;;;;;;;11.18;75.04;102471.69;5048214;28;20033;-81
2021/09/30 02:59:24;;;;;;;6.45;1.60;;;;;;;10.94;74.62;102475.16;5048327;28;20518;-79
2021/09/30 03:02:10;;;;;;;7.10;1.27;;;;;;;11.00;74.20;102474.50;5029545;28;20491;-81
2021/09/30 03:04:38;;;;;;;7.88;1.60;;;;;;;10.99;73.84;102477.97;5051698;28;20043;-78
2021/09/30 03:07:06;;;;;;;6.22;1.20;;;;;;;10.95;74.38;102471.69;5053568;28;20049;-82
2021/09/30 03:09:40;;;;;;;5.57;1.27;;;;;;;10.94;74.33;102477.78;5052231;28;20107;-82
2021/09/30 03:12:27;;;;;;;;;;;;;;;10.93;74.69;102479.53;5055347;28;20029;-78
2021/09/30 03:15:28;;;;;;;4.10;0.93;;;;;;;10.95;74.36;102483.09;5050999;28;19913;-80
2021/09/30 03:23:49;;;;;;;6.28;1.05;;;;;;;10.98;75.15;102492.88;5053969;28;20029;-81
2021/09/30 03:26:15;;;;;;;6.80;1.08;;;;;;;10.94;75.46;102493.59;5052440;28;20025;-82
2021/09/30 03:29:02;;;;;;;2.88;0.93;;;;;;;10.92;75.59;102493.53;5054674;28;20046;-81
2021/09/30 03:31:30;;;;;;;10.18;1.33;;;;;;;10.92;75.28;102496.16;5051987;28;20056;-81
2021/09/30 03:33:56;;;;;;;8.18;1.55;;;;;;;10.85;75.89;102501.09;5050572;28;20447;-79
2021/09/30 03:36:22;;;;;;;10.43;1.40;;;;;;;10.77;76.87;102493.78;5051491;28;20037;-81
2021/09/30 03:38:47;;;;;;;7.53;1.35;;;;;;;10.79;76.07;102502.63;5052211;28;20028;-84
2021/09/30 03:41:13;;;;;;;10.07;1.80;;;;;;;10.79;76.00;102512.28;5051088;28;20489;-77
2021/09/30 03:43:38;;;;;;;10.55;1.80;;;;;;;10.79;75.68;102505.25;5052879;28;20079;-82
2021/09/30 03:46:04;;;;;;;8.50;1.20;;;;;;;10.77;76.39;102512.22;5052564;28;20017;-77
2021/09/30 03:48:30;;;;;;;8.57;1.38;;;;;;;10.75;76.12;102505.06;5035086;28;20036;-80
2021/09/30 03:53:55;;;;;;;8.73;1.70;;;;;;;10.63;76.89;102515.97;5052569;28;20029;-82
2021/09/30 03:56:33;;;;;;;;;;;;;;;10.56;76.90;102521.81;5048992;28;20033;-82
2021/09/30 03:59:18;;;;;;;8.57;1.40;;;;;;;10.46;77.67;102531.94;5051105;28;20367;-79
2021/09/30 04:01:44;;;;;;;11.02;1.70;;;;;;;10.40;77.68;102529.00;5043223;28;20036;-82
2021/09/30 04:04:10;;;;;;;5.95;1.20;;;;;;;10.36;77.75;102532.34;5049326;28;20025;-81
2021/09/30 04:06:35;;;;;;;9.15;1.58;;;;;;;10.31;77.54;102531.22;5034708;28;20163;-78
2021/09/30 04:09:01;;;;;;;9.45;1.77;;;;;;;10.29;77.29;102530.25;5032892;28;20025;-81
2021/09/30 04:11:26;;;;;;;5.90;1.35;;;;;;;10.31;77.27;102531.22;5017448;28;20116;-83
2021/09/30 04:13:52;;;;;;;9.70;1.40;;;;;;;10.33;77.49;102534.81;5050399;28;20037;-83
2021/09/30 04:16:17;;;;;;;7.90;1.33;;;;;;;10.40;76.65;102538.66;5032953;28;20387;-80
2021/09/30 04:18:43;;;;;;;9.57;1.27;;;;;;;10.42;76.85;102540.53;5050322;28;20025;-84
2021/09/30 04:21:08;;;;;;;8.75;1.33;;;;;;;10.48;76.60;102531.13;5052342;28;20021;-80
2021/09/30 04:23:34;;;;;;;11.80;1.95;;;;;;;10.54;76.31;102539.25;5054318;28;20395;-79
2021/09/30 04:26:02;;;;;;;7.53;1.30;;;;;;;10.61;75.17;102536.09;5051620;28;20053;-76
2021/09/30 04:28:27;;;;;;;5.13;1.08;;;;;;;10.64;75.47;102541.47;5038767;28;20479;-79
2021/09/30 04:30:52;;;;;;;5.40;1.17;;;;;;;10.66;75.19;102545.06;5053518;28;20117;-82
2021/09/30 04:33:18;;;;;;;12.90;1.63;;;;;;;10.67;75.37;102540.72;5053745;28;20443;-80
2021/09/30 04:35:43;;;;;;;13.63;2.50;;;;;;;10.67;75.44;102549.50;5056400;28;20105;-82
2021/09/30 04:38:29;;;;;;;8.63;1.38;;;;;;;10.71;75.62;102547.91;5055989;28;20060;-82
2021/09/30 04:40:54;;;;;;;11.90;1.67;;;;;;;10.72;75.58;102552.34;5052834;28;20090;-82
2021/09/30 04:43:20;;;;;;;11.60;1.38;;;;;;;10.72;75.47;102549.72;5050378;28;20375;-81
2021/09/30 04:45:45;;;;;;;5.97;1.25;;;;;;;10.75;75.42;102553.38;5048624;28;20033;-81
2021/09/30 04:48:13;;;;;;;8.35;1.63;;;;;;;10.82;74.73;102543.09;5050635;28;20494;-78
2021/09/30 04:50:38;;;;;;;11.07;2.22;;;;;;;10.84;74.67;102544.06;5052624;28;20036;-82
2021/09/30 04:53:23;;;;;;;13.00;1.80;;;;;;;10.85;74.96;102543.22;5056629;28;20025;-80
2021/09/30 04:55:49;;;;;;;8.60;1.25;;;;;;;10.80;75.21;102554.47;5043527;28;20091;-77
2021/09/30 04:58:14;;;;;;;6.20;1.95;;;;;;;10.74;75.86;102554.22;5053609;28;20045;-80
2021/09/30 05:00:40;;;;;;;9.10;1.40;;;;;;;10.70;75.71;102556.63;5051854;28;20525;-78
2021/09/30 05:03:14;;;;;;;7.70;1.30;;;;;;;10.66;75.37;102549.44;5051746;28;20079;-79
2021/09/30 05:05:59;;;;;;;5.68;1.48;;;;;;;10.66;75.06;102552.94;5051236;28;20060;-82
2021/09/30 05:08:27;;;;;;;9.00;1.50;;;;;;;10.70;74.50;102554.91;5049911;28;20060;-79
2021/09/30 05:10:52;;;;;;;7.45;1.50;;;;;;;10.64;75.04;102554.63;5051298;28;20024;-80
2021/09/30 05:13:22;;;;;;;5.70;1.20;;;;;;;10.63;74.94;102548.47;5052203;28;20430;-83
2021/09/30 05:15:47;;;;;;;9.13;1.92;;;;;;;10.61;74.97;102554.50;5053051;28;20020;-78
2021/09/30 05:18:16;;;;;;;9.73;1.10;;;;;;;10.63;74.46;102547.56;5049972;28;20055;-84
2021/09/30 05:20:41;;;;;;;9.23;1.38;;;;;;;10.58;75.64;102549.09;5052216;28;20029;-77
2021/09/30 05:23:07;;;;;;;9.38;1.40;;;;;;;10.52;75.72;102552.34;5051095;28;20468;-83
2021/09/30 05:25:52;;;;;;;7.10;1.60;;;;;;;10.48;75.82;102546.91;5049234;28;20037;-80
2021/09/30 05:28:18;;;;;;;10.07;1.20;;;;;;;10.43;75.79;102550.22;5050474;28;20032;-85
2021/09/30 05:30:46;;;;;;;10.60;2.13;;;;;;;10.40;75.79;102550.06;5048705;28;20029;-78
2021/09/30 05:33:11;;;;;;;4.85;1.52;;;;;;;10.33;76.19;102549.72;5049676;28;20468;-83
2021/09/30 05:35:37;;;;;;;6.50;1.70;;;;;;;10.28;76.60;102555.66;5052660;28;20040;-81
2021/09/30 05:38:02;;;;;;;11.27;1.65;;;;;;;10.22;76.22;102552.75;5050700;28;20024;-79
2021/09/30 05:40:31;;;;;;;11.57;1.48;;;;;;;10.27;75.80;102558.22;5050160;28;20040;-78
2021/09/30 05:42:58;;;;;;;7.35;1.48;;;;;;;10.27;75.17;102553.88;5050772;28;20028;-80
2021/09/30 05:45:24;;;;;;;6.70;1.30;;;;;;;10.22;76.45;102557.13;5054003;28;20549;-81
2021/09/30 05:47:51;;;;;;;8.00;1.50;;;;;;;10.15;76.32;102548.03;5050545;28;20025;-85
2021/09/30 05:50:17;;;;;;;5.40;1.20;;;;;;;10.07;76.84;102555.56;5050634;28;20475;-82
2021/09/30 05:52:45;;;;;;;12.32;2.67;;;;;;;10.01;77.16;102550.03;5052447;28;20051;-80
2021/09/30 05:55:12;;;;;;;11.88;2.05;;;;;;;9.95;77.57;102550.63;5044437;28;20040;-80
2021/09/30 05:57:38;;;;;;;5.45;1.15;;;;;;;9.91;77.43;102546.06;5040321;28;20079;-80
2021/09/30 06:00:38;;;;;;;8.43;1.25;;;;;;;9.88;77.93;102555.56;5051904;28;20032;-79
2021/09/30 06:11:15;;;;;;;5.85;1.30;;;;;;;10.00;76.49;102563.09;5038979;28;20095;-77
2021/09/30 06:13:57;;;;;;;8.07;2.50;;;;;;;10.01;76.78;102560.56;5047864;28;20056;-78
2021/09/30 06:16:24;;;;;;;8.65;1.48;;;;;;;10.04;75.66;102554.56;5049181;28;20029;-78
2021/09/30 06:19:09;;;;;;;5.47;1.30;;;;;;;10.08;76.08;102556.50;5050594;28;20547;-82
2021/09/30 06:21:35;;;;;;;15.52;2.95;;;;;;;10.11;76.12;102562.78;5050807;28;20080;-79
2021/09/30 06:24:00;;;;;;;7.18;1.17;;;;;;;10.19;75.05;102551.72;5048503;28;20025;-78
2021/09/30 06:26:28;;;;;;;8.15;1.30;;;;;;;10.27;74.08;102552.97;5048995;28;20032;-78
2021/09/30 06:28:54;;;;;;;9.18;1.25;;;;;;;10.34;74.01;102554.16;5065622;28;20880;-78
2021/09/30 06:31:19;;;;;;;8.70;1.17;;;;;;;10.39;73.71;102552.63;5058800;28;20029;-75
2021/09/30 06:33:44;;;;;;;11.82;1.50;;;;;;;10.43;73.50;102547.59;5053682;28;20025;-77
2021/09/30 06:36:10;;;;;;;6.85;1.10;;;;;;;10.51;73.02;102536.50;5038884;28;20109;-75
2021/09/30 06:38:35;;;;;;;7.35;1.35;;;;;;;10.60;73.06;102545.69;5042111;28;20033;-76
2021/09/30 06:41:00;;;;;;;6.85;1.27;;;;;;;10.67;73.45;102548.59;5040899;28;20032;-76
2021/09/30 06:43:26;;;;;;;5.60;1.23;;;;;;;10.74;72.41;102535.78;5045414;28;20551;-76
2021/09/30 06:45:52;;;;;;;5.38;1.80;;;;;;;10.85;72.54;102540.59;5041419;28;20025;-76
2021/09/30 06:48:18;;;;;;;7.38;1.40;;;;;;;10.98;72.57;102549.94;5043850;28;20017;-80
2021/09/30 06:50:46;;;;;;;6.25;1.17;;;;;;;11.12;71.84;102552.31;5046393;28;20044;-77
2021/09/30 06:53:13;;;;;;;7.65;1.20;;;;;;;11.25;71.65;102552.81;5047480;28;20025;-76
2021/09/30 06:55:42;;;;;;;13.57;1.95;;;;;;;11.34;71.34;102561.13;5040624;28;20029;-77
2021/09/30 06:58:10;;;;;;;7.03;1.10;;;;;;;11.38;71.78;102568.31;5026401;28;20945;-78
2021/09/30 07:00:39;;;;;;;7.38;1.20;;;;;;;11.38;71.57;102557.75;5042316;28;20078;-76
2021/09/30 07:03:06;;;;;;;8.80;1.80;;;;;;;11.37;70.94;102566.50;5041638;28;20033;-78
2021/09/30 07:05:33;;;;;;;6.43;1.52;;;;;;;11.28;72.07;102560.84;5038872;28;20051;-78
2021/09/30 07:08:02;;;;;;;7.53;1.60;;;;;;;11.31;72.48;102571.50;5045812;28;20032;-76
2021/09/30 07:10:29;;;;;;;10.77;1.60;;;;;;;11.33;71.76;102559.31;5035648;28;20064;-76
2021/09/30 07:12:55;;;;;;;6.90;1.50;;;;;;;11.35;72.19;102565.53;5048962;28;20029;-78
2021/09/30 07:15:21;;;;;;;7.40;1.98;;;;;;;11.36;73.94;102576.97;5047005;28;20039;-79
2021/09/30 07:17:50;;;;;;;8.63;2.55;;;;;;;11.41;74.53;102586.00;5047407;28;20757;-79
2021/09/30 07:20:15;;;;;;;9.20;1.77;;;;;;;11.50;74.48;102580.19;5050736;28;20418;-80
2021/09/30 07:22:41;;;;;;;7.53;1.50;;;;;;;11.54;75.03;102579.47;5047708;28;20033;-77
2021/09/30 07:25:07;;;;;;;8.18;2.10;;;;;;;11.63;74.62;102582.47;5050326;28;20036;-81
2021/09/30 07:27:35;;;;;;;8.23;1.98;;;;;;;11.67;75.80;102588.78;5026835;28;20494;-79
2021/09/30 07:30:06;;;;;;;15.40;2.13;;;;;;;11.67;76.15;102589.66;5046199;28;20055;-76
2021/09/30 07:32:31;;;;;;;12.93;2.47;;;;;;;11.69;76.64;102585.34;5061646;28;20045;-79
2021/09/30 07:34:57;;;;;;;10.43;1.95;;;;;;;11.73;76.71;102589.00;5048894;28;20054;-80
2021/09/30 07:37:22;;;;;;;10.77;1.77;;;;;;;11.77;77.07;102588.28;5046137;28;20483;-76
2021/09/30 07:39:48;;;;;;;14.50;2.13;;;;;;;11.87;76.31;102589.56;5052676;28;20415;-81
2021/09/30 07:42:13;;;;;;;11.65;2.10;;;;;;;11.93;77.34;102595.09;5041828;28;20047;-76
2021/09/30 07:44:39;;;;;;;11.55;1.90;;;;;;;11.97;76.89;102599.66;5044528;28;20509;-78
2021/09/30 07:47:24;;;;;;;8.18;1.73;;;;;;;12.00;77.04;102591.88;5046363;28;20029;-77
2021/09/30 07:49:52;;;;;;;10.57;2.13;;;;;;;12.04;77.85;102591.16;5047149;28;20025;-79
2021/09/30 07:52:18;;;;;;;8.07;1.80;;;;;;;12.09;77.96;102601.91;5045524;28;20094;-77
2021/09/30 07:54:43;;;;;;;9.18;2.25;;;;;;;12.16;77.18;102593.38;5045459;28;20487;-77
2021/09/30 07:57:10;;;;;;;12.05;1.98;;;;;;;12.27;79.11;102604.34;5045819;28;20037;-78
2021/09/30 07:59:35;;;;;;;14.60;2.05;;;;;;;12.51;77.42;102611.34;5039038;28;20036;-79
2021/09/30 08:02:01;;;;;;;17.15;1.95;;;;;;;12.72;76.69;102600.69;5033847;28;20040;-80
2021/09/30 08:04:46;;;;;;;9.68;1.83;;;;;;;12.75;76.66;102609.63;5050132;28;20044;-80
2021/09/30 08:07:12;;;;;;;12.63;1.98;;;;;;;12.93;76.13;102612.03;5049103;28;20041;-79
2021/09/30 08:09:37;;;;;;;10.98;2.20;;;;;;;12.98;75.78;102609.53;5050852;28;20028;-82
2021/09/30 08:12:05;;;;;;;10.50;2.00;;;;;;;12.88;75.81;102610.06;5056018;28;20111;-78
2021/09/30 08:14:50;;;;;;;12.82;1.73;;;;;;;12.88;75.71;102608.31;5051850;28;20029;-81
2021/09/30 08:17:16;;;;;;;11.13;2.03;;;;;;;12.85;76.82;102612.63;5050770;28;20037;-77
2021/09/30 08:19:41;;;;;;;9.07;1.90;;;;;;;12.78;76.39;102608.84;5047896;28;20036;-76
2021/09/30 08:22:06;;;;;;;9.77;2.10;;;;;;;12.71;77.02;102605.09;5047958;28;20037;-81
2021/09/30 08:24:32;;;;;;;12.60;1.98;;;;;;;12.74;76.66;102605.19;5047220;28;20044;-77
2021/09/30 08:26:57;;;;;;;12.60;1.90;;;;;;;12.80;77.88;102610.72;5046376;28;20047;-78
2021/09/30 08:29:23;;;;;;;7.80;1.55;;;;;;;12.99;76.29;102604.31;5048086;28;20037;-79
2021/09/30 08:31:48;;;;;;;9.30;1.90;;;;;;;13.22;75.41;102598.03;5059164;28;20037;-77
2021/09/30 08:34:14;;;;;;;11.70;2.25;;;;;;;13.38;75.80;102603.00;5046324;28;20043;-78
2021/09/30 08:36:40;;;;;;;14.65;2.03;;;;;;;13.53;73.35;102586.75;5046689;28;20036;-80
2021/09/30 08:39:25;;;;;;;12.82;2.10;;;;;;;13.66;72.20;102588.06;5049284;28;20033;-77
2021/09/30 08:41:50;;;;;;;10.57;2.03;;;;;;;13.71;73.00;102588.19;5046376;28;20029;-81
2021/09/30 08:44:23;;;;;;;13.60;1.40;;;;;;;13.78;73.29;102585.78;5044202;28;20036;-77
2021/09/30 08:46:48;;;;;;;9.60;2.28;;;;;;;13.91;73.43;102597.66;5051138;28;20033;-77
2021/09/30 08:49:14;;;;;;;7.32;1.55;;;;;;;14.00;72.36;102586.47;5051427;28;20501;-77
2021/09/30 08:51:39;;;;;;;6.70;1.75;;;;;;;14.13;70.07;102572.75;5043375;28;20036;-77
2021/09/30 08:54:05;;;;;;;10.02;1.67;;;;;;;14.04;70.27;102583.06;5043518;28;20033;-79
2021/09/30 08:56:33;;;;;;;9.90;1.80;;;;;;;13.94;70.56;102575.66;5045444;28;20482;-76
2021/09/30 08:59:15;;;;;;;21.23;2.47;;;;;;;13.83;70.43;102583.28;5041394;28;20040;-79
2021/09/30 09:01:44;;;;;;;9.15;2.17;;;;;;;13.89;70.65;102583.47;5058086;28;20021;-75
2021/09/30 09:04:36;;;;;;;10.43;1.90;;;;;;;13.85;71.04;102585.97;5044945;28;20039;-79
2021/09/30 09:07:08;;;;;;;6.65;1.67;;;;;;;13.85;70.76;102583.31;5046582;28;20087;-78
2021/09/30 09:09:54;;;;;;;14.25;2.33;;;;;;;13.69;71.63;102574.91;5049439;28;20108;-78
2021/09/30 09:12:41;;;;;;;8.30;1.70;;;;;;;13.54;70.97;102574.41;5043323;28;20036;-78
2021/09/30 09:15:07;;;;;;;7.20;1.50;;;;;;;13.52;71.05;102576.13;5045213;28;20035;-77
2021/09/30 09:17:32;;;;;;;9.65;1.70;;;;;;;13.44;71.94;102560.91;5042450;28;20038;-76
2021/09/30 09:20:01;;;;;;;4.32;1.27;;;;;;;13.46;70.30;102572.41;5048454;28;20028;-78
2021/09/30 09:22:35;;;;;;;5.78;1.50;;;;;;;13.43;70.09;102567.03;5044503;28;20032;-77
2021/09/30 09:25:00;;;;;;;6.10;1.30;;;;;;;13.56;70.71;102562.16;5045828;28;20032;-77
2021/09/30 09:27:47;;;;;;;9.15;2.25;;;;;;;13.71;70.04;102567.03;5048933;28;20037;-78
2021/09/30 09:30:49;;;;;;;4.60;1.60;;;;;;;13.93;69.08;102569.50;5046695;28;20032;-78
2021/09/30 09:33:39;;;;;;;8.95;1.70;;;;;;;14.06;68.53;102560.16;5045526;28;20033;-80
2021/09/30 09:36:29;;;;;;;11.55;1.88;;;;;;;14.27;66.92;102551.03;5042746;28;20427;-78
2021/09/30 09:38:55;;;;;;;9.50;1.77;;;;;;;14.39;67.77;102551.41;5041128;28;20034;-78
2021/09/30 09:41:30;;;;;;;9.55;1.60;;;;;;;14.65;65.93;102538.91;5051126;28;20041;-79
2021/09/30 09:44:01;;;;;;;5.30;1.38;;;;;;;14.77;64.83;102534.78;5045201;28;20029;-80
2021/09/30 09:46:39;;;;;;;8.93;1.65;;;;;;;14.82;65.59;102536.69;5039891;28;20036;-80
2021/09/30 09:49:25;;;;;;;8.52;1.55;;;;;;;14.73;65.33;102536.47;5044316;28;20079;-78
2021/09/30 09:51:52;;;;;;;12.15;1.40;;;;;;;14.80;65.15;102534.88;5046909;28;20439;-79
2021/09/30 09:54:21;;;;;;;10.60;1.70;;;;;;;15.00;64.39;102538.03;5048650;28;20022;-81
2021/09/30 09:56:47;;;;;;;9.55;1.50;;;;;;;15.04;63.81;102536.38;5042347;28;20048;-79
2021/09/30 09:59:26;;;;;;;12.57;2.25;;;;;;;15.31;63.82;102541.44;5031584;28;20127;-77
2021/09/30 10:01:53;;;;;;;9.90;2.15;;;;;;;15.43;62.72;102525.81;5023728;28;20026;-80
2021/09/30 10:04:19;;;;;;;9.48;1.73;;;;;;;15.63;62.21;102530.72;5022367;28;20049;-78
2021/09/30 10:06:45;;;;;;;6.60;1.40;;;;;;;15.63;61.87;102522.75;5029664;28;20056;-78
2021/09/30 10:09:14;;;;;;;8.82;1.50;;;;;;;15.72;61.16;102520.31;5036137;28;20075;-78
2021/09/30 10:11:39;;;;;;;9.88;1.45;;;;;;;15.50;60.83;102517.16;5015087;28;20032;-78
2021/09/30 10:14:07;;;;;;;7.65;1.40;;;;;;;15.75;62.77;102525.69;5033106;28;20033;-77
2021/09/30 10:17:12;;;;;;;7.10;1.83;;;;;;;15.81;61.07;102525.81;5033429;28;20030;-76
2021/09/30 10:19:38;;;;;;;9.45;1.88;;;;;;;15.77;61.77;102525.72;5024813;28;20086;-77
2021/09/30 10:22:04;;;;;;;10.40;1.58;;;;;;;15.71;60.59;102513.19;5032965;28;20061;-79
2021/09/30 10:24:29;;;;;;;7.28;1.23;;;;;;;15.41;60.33;102516.94;5014390;28;20059;-77
2021/09/30 10:26:59;;;;;;;6.55;1.42;;;;;;;15.35;60.49;102511.50;5031575;28;20472;-80
2021/09/30 10:30:03;;;;;;;5.18;1.15;;;;;;;15.33;61.23;102513.22;5035625;28;20060;-78
2021/09/30 10:32:29;;;;;;;6.68;1.70;;;;;;;15.05;63.19;102515.19;5032932;28;20044;-78
2021/09/30 10:35:14;;;;;;;7.25;1.45;;;;;;;14.97;63.15;102516.75;5028224;28;20037;-79
2021/09/30 10:37:39;;;;;;;7.38;1.60;;;;;;;14.86;63.44;102510.28;5029874;28;20048;-80
2021/09/30 10:40:18;;;;;;;8.18;1.70;;;;;;;14.76;63.03;102514.44;5037085;28;20111;-77
2021/09/30 10:42:55;;;;;;;8.95;2.22;;;;;;;14.82;64.40;102510.19;5030320;28;20049;-79
2021/09/30 10:45:22;;;;;;;8.93;1.60;;;;;;;14.89;63.95;102518.31;5033137;28;20034;-78
2021/09/30 10:47:48;;;;;;;5.55;1.13;;;;;;;14.82;63.20;102523.44;5031726;28;20053;-80
2021/09/30 10:50:15;;;;;;;8.20;1.50;;;;;;;14.93;63.69;102521.06;5032036;28;20523;-79
2021/09/30 10:52:52;;;;;;;6.78;1.65;;;;;;;14.85;63.25;102519.97;5034220;28;20041;-78
2021/09/30 10:55:17;;;;;;;5.57;1.55;;;;;;;14.80;63.84;102522.53;5026546;28;20033;-78
2021/09/30 10:57:45;;;;;;;4.72;1.30;;;;;;;14.77;64.08;102516.22;5037350;28;20550;-78
2021/09/30 11:00:12;;;;;;;11.35;1.48;;;;;;;14.76;65.33;102528.59;5057905;28;20052;-78
2021/09/30 11:03:02;;;;;;;6.60;1.30;;;;;;;14.76;63.91;102518.00;5066259;28;20055;-76
2021/09/30 11:05:33;;;;;;;8.60;1.48;;;;;;;14.68;62.98;102516.91;5067882;28;20106;-76
2021/09/30 11:08:16;;;;;;;8.40;1.15;;;;;;;14.66;63.11;102510.66;5058104;28;20079;-78
2021/09/30 11:11:02;;;;;;;3.97;1.25;;;;;;;14.39;64.30;102511.69;5053189;28;20028;-76
2021/09/30 11:13:30;;;;;;;6.82;1.70;;;;;;;14.40;64.23;102518.75;5053353;28;20124;-75
2021/09/30 11:16:08;;;;;;;9.20;1.73;;;;;;;14.48;63.52;102506.63;5062836;28;20060;-77
2021/09/30 11:18:45;;;;;;;5.60;1.30;;;;;;;14.37;64.11;102509.84;5062803;28;20040;-77
2021/09/30 11:21:31;;;;;;;10.30;1.48;;;;;;;14.40;64.12;102505.50;5065769;28;20020;-76
2021/09/30 11:24:04;;;;;;;7.10;1.30;;;;;;;14.25;64.73;102513.03;5041100;28;20029;-77
2021/09/30 11:26:32;;;;;;;7.35;1.15;;;;;;;14.31;64.69;102510.56;5065135;28;20031;-81
2021/09/30 11:29:22;;;;;;;9.32;1.90;;;;;;;14.28;66.24;102513.13;5065903;28;20493;-81
2021/09/30 11:32:07;;;;;;;7.82;1.52;;;;;;;14.13;66.07;102511.84;5066454;28;20024;-82
2021/09/30 11:34:50;;;;;;;3.90;1.00;;;;;;;14.19;66.31;102512.84;5065847;28;20059;-79
2021/09/30 11:37:24;;;;;;;3.10;1.00;;;;;;;14.16;66.09;102514.59;5065068;28;20371;-80
2021/09/30 11:39:51;;;;;;;7.53;1.45;;;;;;;14.03;65.39;102509.78;5060328;28;20519;-80
2021/09/30 11:42:18;;;;;;;4.13;1.30;;;;;;;14.08;65.85;102504.59;5064402;28;20040;-80
2021/09/30 11:45:21;;;;;;;6.78;1.58;;;;;;;14.00;66.79;102507.06;5069328;28;20063;-82
2021/09/30 11:48:07;;;;;;;8.02;1.50;;;;;;;14.08;66.33;102505.53;5067102;28;20032;-78
2021/09/30 11:50:56;;;;;;;8.10;1.00;;;;;;;13.95;68.25;102508.66;5070505;28;20388;-78
2021/09/30 11:53:25;;;;;;;7.80;1.50;;;;;;;13.76;67.10;102508.09;5065009;28;20036;-80
2021/09/30 11:56:11;;;;;;;8.15;1.63;;;;;;;13.76;66.87;102496.63;5065228;28;20043;-77
2021/09/30 11:58:36;;;;;;;6.18;1.58;;;;;;;13.73;68.16;102497.44;5070004;28;20041;-82
2021/09/30 12:01:01;;;;;;;6.22;1.17;;;;;;;13.74;68.05;102496.59;5069794;28;20043;-79
2021/09/30 12:03:47;;;;;;;5.10;1.75;;;;;;;13.70;67.01;102494.72;5067110;28;20565;-80
2021/09/30 12:06:15;;;;;;;5.22;1.17;;;;;;;13.84;65.01;102481.88;5068576;28;20028;-78
2021/09/30 12:08:44;;;;;;;4.15;1.00;;;;;;;13.93;63.54;102463.63;5066718;28;20017;-81
2021/09/30 12:11:12;;;;;;;7.00;1.48;;;;;;;14.03;65.55;102480.66;5071229;28;20079;-78
2021/09/30 12:13:43;;;;;;;7.03;1.00;;;;;;;14.18;63.49;102469.63;5060929;28;20521;-82
2021/09/30 12:16:10;;;;;;;3.50;0.93;;;;;;;14.14;62.84;102462.44;5069561;28;20119;-82
2021/09/30 12:18:35;;;;;;;3.83;0.88;;;;;;;14.11;62.07;102460.59;5053097;28;20033;-79
2021/09/30 12:21:01;;;;;;;4.88;0.93;;;;;;;13.94;64.01;102459.22;5065479;28;20032;-78
2021/09/30 12:23:27;;;;;;;4.43;1.25;;;;;;;14.02;63.13;102457.69;5070135;28;20021;-81
2021/09/30 12:26:14;;;;;;;8.05;1.55;;;;;;;14.16;64.24;102461.63;5073205;28;20029;-79
2021/09/30 12:28:39;;;;;;;4.63;1.00;;;;;;;14.25;64.11;102457.44;5068655;28;20058;-81
2021/09/30 12:31:16;;;;;;;8.93;1.20;;;;;;;14.16;64.74;102456.34;5067619;28;20369;-78
2021/09/30 12:34:21;;;;;;;6.20;1.20;;;;;;;14.20;64.55;102451.13;5066722;28;20028;-78
2021/09/30 12:36:47;;;;;;;5.47;1.25;;;;;;;14.26;64.19;102446.00;5055367;28;20043;-76
2021/09/30 12:39:12;;;;;;;9.95;1.48;;;;;;;14.24;62.39;102432.69;5062815;28;20028;-80
2021/09/30 12:41:37;;;;;;;6.00;1.23;;;;;;;14.45;62.81;102427.09;5063100;28;20024;-80
2021/09/30 12:44:13;;;;;;;8.73;1.70;;;;;;;14.71;61.09;102415.41;5080749;28;20043;-78
2021/09/30 12:46:44;;;;;;;5.78;1.10;;;;;;;14.90;61.81;102412.31;5066884;28;20066;-78
2021/09/30 12:49:09;;;;;;;5.45;0.73;;;;;;;15.03;62.46;102418.84;5067966;28;20108;-80
2021/09/30 12:51:35;;;;;;;3.97;0.85;;;;;;;15.16;61.35;102418.22;5070895;28;20115;-77
2021/09/30 12:54:00;;;;;;;4.13;0.95;;;;;;;15.17;60.45;102403.22;5068231;28;20025;-80
2021/09/30 12:56:53;;;;;;;14.25;1.48;;;;;;;15.21;60.21;102401.56;5064997;28;20028;-78
2021/09/30 12:59:20;;;;;;;7.00;1.30;;;;;;;15.15;61.14;102405.84;5063529;28;20098;-79
2021/09/30 13:02:05;;;;;;;4.57;1.10;;;;;;;15.19;62.77;102398.84;5068092;28;20265;-80
2021/09/30 13:04:54;;;;;;;5.72;1.20;;;;;;;15.24;62.75;102394.53;5067004;28;20032;-80
2021/09/30 13:08:01;;;;;;;9.93;1.23;;;;;;;15.41;61.43;102381.66;5063314;28;20392;-80
2021/09/30 13:10:34;;;;;;;8.52;1.70;;;;;;;15.38;62.28;102396.59;5063495;28;20524;-80
2021/09/30 13:13:14;;;;;;;12.32;1.65;;;;;;;15.37;62.74;102387.78;5050069;28;20043;-78
2021/09/30 13:15:41;;;;;;;9.63;1.85;;;;;;;15.42;62.84;102380.78;5061639;28;20481;-79
2021/09/30 13:18:12;;;;;;;7.50;2.00;;;;;;;15.45;61.27;102370.25;5067720;28;20043;-81
2021/09/30 13:20:45;;;;;;;8.05;1.95;;;;;;;15.39;61.75;102369.22;5065632;28;20182;-79
2021/09/30 13:23:13;;;;;;;9.80;2.10;;;;;;;15.28;62.21;102371.66;5041842;28;20487;-79
2021/09/30 13:25:40;;;;;;;4.20;1.50;;;;;;;15.19;63.51;102369.69;5056253;28;20044;-79
2021/09/30 13:28:06;;;;;;;9.68;1.60;;;;;;;15.03;64.39;102368.47;5062118;28;20070;-82
2021/09/30 13:30:37;;;;;;;9.15;1.92;;;;;;;14.88;64.57;102363.72;5058017;28;20028;-80
2021/09/30 13:33:16;;;;;;;11.00;1.98;;;;;;;14.76;65.01;102356.34;5062908;28;20376;-82
2021/09/30 13:35:43;;;;;;;7.45;1.92;;;;;;;14.60;65.89;102356.81;5059981;28;20068;-79
2021/09/30 13:38:08;;;;;;;9.20;1.70;;;;;;;14.53;66.54;102358.41;5060476;28;20059;-80
2021/09/30 13:40:34;;;;;;;5.82;1.70;;;;;;;14.50;66.52;102351.28;5059542;28;20370;-79
2021/09/30 13:43:02;;;;;;;10.27;1.70;;;;;;;14.37;66.30;102351.84;5061752;28;20039;-79
2021/09/30 13:45:28;;;;;;;7.88;2.35;;;;;;;14.27;67.27;102344.50;5061268;28;20589;-80
2021/09/30 13:47:56;;;;;;;12.23;1.73;;;;;;;14.24;67.45;102342.66;5064072;28;20031;-80
2021/09/30 13:50:25;;;;;;;9.82;1.63;;;;;;;14.29;67.94;102348.09;5053363;28;20036;-78
2021/09/30 13:53:09;;;;;;;10.10;1.73;;;;;;;14.24;68.30;102336.50;5061194;28;20463;-80
2021/09/30 14:14:58;;;;;;;6.45;1.73;;;;;;;14.46;67.80;102312.34;4911547;28;20058;-80
2021/09/30 14:17:45;;;;;;;8.97;1.90;;;;;;;14.44;66.41;102302.56;4949471;28;20509;-80
2021/09/30 14:20:21;;;;;;;8.98;1.52;;;;;;;14.33;67.14;102311.13;4951308;28;20745;-78
2021/09/30 14:23:26;;;;;;;8.60;3.00;;;;;;;14.38;67.18;102310.34;4984554;28;20541;-80
2021/09/30 14:26:12;;;;;;;13.27;1.80;;;;;;;14.34;67.21;102302.34;4985123;28;20078;-79
2021/09/30 14:28:46;;;;;;;6.07;1.50;;;;;;;14.28;66.85;102290.69;5050851;28;20044;-79
2021/09/30 14:31:13;;;;;;;9.15;1.80;;;;;;;14.19;67.58;102301.06;5066278;28;20033;-80
2021/09/30 14:33:39;;;;;;;10.95;1.58;;;;;;;14.08;67.38;102301.69;5068028;28;20032;-77
2021/09/30 14:36:05;;;;;;;9.02;1.67;;;;;;;14.01;66.41;102291.78;5066938;28;20182;-79
2021/09/30 14:38:50;;;;;;;4.72;1.20;;;;;;;13.99;66.70;102293.53;5066336;28;20457;-76
2021/09/30 14:41:16;;;;;;;8.05;1.58;;;;;;;14.02;66.03;102288.28;5066067;28;20078;-78
2021/09/30 14:43:41;;;;;;;10.27;1.25;;;;;;;13.97;66.21;102284.63;5065331;28;20474;-81
2021/09/30 14:46:08;;;;;;;7.25;1.70;;;;;;;13.98;66.53;102276.75;5064382;28;20028;-80
2021/09/30 14:48:38;;;;;;;7.13;1.63;;;;;;;14.08;65.22;102277.88;5067517;28;20056;-79